メインページ
METAR-TAF:

METAR-TAF

空港 :

ムルマンスク, ロシア

緯度: 68-58N, 経度: 033-03E, 海抜: 51m

現時点の気象観測

当レポートは37分前の15:00(UTC)に作成
の風 8kt、南/南東から南西の間で変化する
気温 4°C
湿度 38%
気圧 1010 hPa
視程10km以上
1,500メートル以下は雲なし、積乱雲なし

METAR: ULMM 231500Z 19004MPS 150V230 CAVOK 04/M09 Q1010 R31/190065 NOSIG RMK QFE750

時間: 18:37 (15:37 UTC)

予報

当レポートは1時間47分前の13:50(UTC)に作成
予報は23日の 15時(UTC)から 24日の 15時(UTC)まで有効
南西の風 6kt
視程10km以上
高度1200ftの千切れ雲あり
23日の 15時(UTC)から 23日の 20時(UTC)まで一時的に
西の風 6kt
高度1200ftの千切れ雲あり, 積乱雲.
弱いにわか雪, 雨
23日の 20時(UTC)から 24日の 15時(UTC)まで一時的に
の風 6kt
視程: 3100m
高度1200ftの千切れ雲あり, 積乱雲.
弱いにわか雪

TAF: ULMM 231350Z 2315/2415 22003MPS 9999 BKN012 TEMPO 2315/2320 28003MPS -SHSNRA BKN012CB TEMPO 2320/2415 18003MPS 3100 -SHSN BKN012CB

4,000以上の空港の気象観測と天気予報(METAR報とTAF報)

利用可能な観測所は地図上に黄色い丸と赤い丸で示す。

丸の上にカーソルを重ねると観測所名を参照できる。

次にクリックすると気象観測と天気予報を参照できる。

マップの切り替え:黒色「×」印の緑ボタンをクリックして拡大、「-」印の緑ボタンをクリックして縮小、緑色の三角印をクリックして隣りの地図に切り替え


METAR-TAF: